The Farmers Guide 72-hour weather forecast

Enter Postcode:

Overcast

(15:00)

17.5°C

IP2 0SS

Wind Soil
Date Time Weather Temp Rain Humid Cloud Press (mph) Temp Moist
30/10 15:00 17.5°C 0.0mm 84% 100% 1019mb 7ssw (195 degrees) 13.3°C 0.3%
18:00 14.9°C 0.0mm 95% 98% 1019mb 7ssw (197 degrees) 13.3°C 0.3%
21:00 13.8°C 0.0mm 94% 57% 1019mb 8ssw (199 degrees) 13.3°C 0.3%
31/10 00:00 13.5°C 0.0mm 94% 60% 1019mb 8ssw (198 degrees) 13.3°C 0.3%
03:00 13.6°C 0.0mm 93% 66% 1018mb 9ssw (193 degrees) 13.3°C 0.3%
06:00 13.6°C 0.0mm 92% 76% 1018mb 9ssw (198 degrees) 13.3°C 0.3%
09:00 15.0°C 0.0mm 87% 88% 1019mb 9ssw (199 degrees) 13.3°C 0.3%
12:00 17.9°C 0.0mm 77% 85% 1019mb 11s (188 degrees) 13.3°C 0.3%
15:00 17.6°C 0.0mm 78% 30% 1018mb 11s (178 degrees) 13.3°C 0.3%
18:00 15.1°C 0.0mm 84% 30% 1017mb 11s (180 degrees) 13.3°C 0.3%
21:00 14.7°C 0.0mm 86% 35% 1017mb 12s (190 degrees) 13.3°C 0.3%
01/11 00:00 14.2°C 0.0mm 87% 36% 1017mb 11ssw (203 degrees) 13.3°C 0.3%
03:00 13.7°C 0.0mm 92% 20% 1016mb 10ssw (208 degrees) 13.3°C 0.3%
06:00 13.6°C 0.0mm 95% 11% 1016mb 10ssw (201 degrees) 13.3°C 0.3%
09:00 15.2°C 0.0mm 90% 2% 1016mb 11ssw (202 degrees) 13.3°C 0.3%
12:00 18.2°C 0.0mm 76% 20% 1014mb 14ssw (199 degrees) 13.3°C 0.3%
15:00 17.6°C 0.0mm 79% 81% 1013mb 12ssw (197 degrees) 13.4°C 0.3%
18:00 15.6°C 0.3mm 89% 84% 1012mb 13ssw (197 degrees) 13.4°C 0.3%
21:00 15.1°C 0.3mm 90% 95% 1012mb 12ssw (213 degrees) 13.4°C 0.3%
02/11 00:00 13.0°C 0.3mm 89% 94% 1011mb 11sw (215 degrees) 13.4°C 0.3%
03:00 12.1°C 0.0mm 80% 52% 1009mb 13ssw (205 degrees) 13.4°C 0.3%
06:00 12.1°C 0.0mm 83% 27% 1008mb 15ssw (200 degrees) 13.4°C 0.3%
09:00 14.0°C 0.0mm 85% 56% 1007mb 17ssw (201 degrees) 13.4°C 0.3%
12:00 15.8°C 0.2mm 77% 74% 1006mb 22ssw (201 degrees) 13.4°C 0.3%
The Farmers Guide weather forecast is a free service for users of this website.
 
We now carry forecasts based on postcodes. Just enter your postcode and the weather page will display the forecast for the following 72 hours, broken down into three-hour intervals.
 
The forecast data provided for each three-hour period includes: a general graphic showing the likely weather conditions; average temperatures for the period; cloud cover; barometric pressure; wind speed and direction; humidity; and rainfall.
 
An indication of the likely soil temperature and soil moisture will also be displayed for most postcodes, although this data is not available for every area.
 
We hope you will find this service useful and would welcome any feedback from you.
 
 

Search

Read our full November issue here FREE!

Advertisments